createdAt,value
2023-01-26T00:01:10.829Z,64.88
2023-01-26T00:03:38.970Z,65.29
2023-01-26T00:06:07.628Z,64.92
2023-01-26T00:08:37.500Z,65.06
2023-01-26T00:11:06.371Z,65.34
2023-01-26T00:13:36.612Z,65.27
2023-01-26T00:16:05.187Z,65.29
2023-01-26T00:18:33.232Z,65.06
2023-01-26T00:21:02.583Z,64.99
2023-01-26T00:23:31.858Z,65.05
2023-01-26T00:25:59.509Z,64.88
2023-01-26T00:28:27.181Z,65.41
2023-01-26T00:31:03.671Z,65.14
2023-01-26T00:33:31.503Z,65.38
2023-01-26T00:35:59.529Z,65.12
2023-01-26T00:38:27.206Z,65.13
2023-01-26T00:40:54.865Z,65.03
2023-01-26T00:43:22.852Z,64.95
2023-01-26T00:45:50.684Z,64.88
2023-01-26T00:48:19.663Z,65.27
2023-01-26T00:50:47.365Z,64.93
2023-01-26T00:53:14.977Z,65.18
2023-01-26T00:55:42.609Z,65.19
2023-01-26T00:58:11.128Z,65.27
2023-01-26T01:00:40.008Z,65.26
2023-01-26T01:03:08.372Z,65.22
2023-01-26T01:05:37.393Z,65.25
2023-01-26T01:08:05.195Z,65.07
2023-01-26T01:10:32.849Z,65.08
2023-01-26T01:13:00.946Z,65.19
2023-01-26T01:15:28.600Z,65.38
2023-01-26T01:17:56.240Z,65.23
2023-01-26T01:20:23.921Z,64.91
2023-01-26T01:22:53.442Z,65.48
2023-01-26T01:25:21.415Z,65.43
2023-01-26T01:27:49.218Z,65.06
2023-01-26T01:30:16.914Z,65.31
2023-01-26T01:32:44.914Z,65.30
2023-01-26T01:35:12.545Z,65.59
2023-01-26T01:37:40.181Z,65.35
2023-01-26T01:40:13.209Z,65.52
2023-01-26T01:42:47.841Z,65.35
2023-01-26T01:45:41.947Z,65.42
2023-01-26T01:48:16.667Z,65.21
2023-01-26T01:50:45.158Z,65.25
2023-01-26T01:53:24.490Z,65.32
2023-01-26T01:55:57.033Z,65.25
2023-01-26T01:58:24.973Z,65.32
2023-01-26T02:00:52.610Z,65.21
2023-01-26T02:03:21.461Z,64.94
2023-01-26T02:05:56.994Z,65.16
2023-01-26T02:08:27.698Z,65.25
2023-01-26T02:11:00.595Z,65.07
2023-01-26T02:13:29.467Z,65.41
2023-01-26T02:16:00.214Z,65.26
2023-01-26T02:18:28.600Z,65.35
2023-01-26T02:21:00.377Z,65.27
2023-01-26T02:23:40.215Z,65.29
2023-01-26T02:26:15.201Z,65.29
2023-01-26T02:28:44.975Z,65.46
2023-01-26T02:31:13.638Z,65.56
2023-01-26T02:33:42.379Z,65.30
2023-01-26T02:36:17.834Z,65.33
2023-01-26T02:38:52.823Z,65.58
2023-01-26T02:41:35.966Z,65.39
2023-01-26T02:44:05.850Z,65.25
2023-01-26T02:46:33.525Z,65.67
2023-01-26T02:49:18.736Z,65.31
2023-01-26T02:51:46.369Z,65.45
2023-01-26T02:54:34.380Z,65.35
2023-01-26T02:57:02.429Z,65.40
2023-01-26T02:59:30.052Z,65.23
2023-01-26T03:01:58.653Z,65.45
2023-01-26T03:04:27.122Z,65.55
2023-01-26T03:06:54.745Z,65.28
2023-01-26T03:09:22.392Z,65.13
2023-01-26T03:11:50.023Z,65.36
2023-01-26T03:14:19.342Z,65.59
2023-01-26T03:16:47.124Z,65.33
2023-01-26T03:19:33.707Z,65.47
2023-01-26T03:22:19.544Z,65.41
2023-01-26T03:25:04.906Z,65.07
2023-01-26T03:27:38.418Z,65.35
2023-01-26T03:30:08.753Z,65.39
2023-01-26T03:32:36.528Z,65.13
2023-01-26T03:35:04.444Z,65.59
2023-01-26T03:37:36.842Z,65.33
2023-01-26T03:40:22.555Z,65.21
2023-01-26T03:43:07.909Z,65.65
2023-01-26T03:45:54.527Z,65.22
2023-01-26T03:48:39.949Z,65.36
2023-01-26T03:51:25.331Z,65.35
2023-01-26T03:54:10.744Z,65.47
2023-01-26T03:56:38.424Z,65.53
2023-01-26T03:59:09.200Z,65.16
2023-01-26T04:01:41.146Z,65.44
2023-01-26T04:04:27.539Z,65.49
2023-01-26T04:07:12.683Z,65.24
2023-01-26T04:09:40.531Z,65.40
2023-01-26T04:12:10.241Z,65.70
2023-01-26T04:14:55.889Z,65.55
2023-01-26T04:17:42.388Z,65.21
2023-01-26T04:20:28.642Z,65.22
2023-01-26T04:22:56.260Z,65.25
2023-01-26T04:25:24.356Z,65.70
2023-01-26T04:27:52.047Z,65.63
2023-01-26T04:30:20.401Z,65.49
2023-01-26T04:32:49.408Z,65.58
2023-01-26T04:35:17.240Z,65.68
2023-01-26T04:37:44.852Z,65.46
2023-01-26T04:40:13.580Z,65.46
2023-01-26T04:42:41.417Z,65.38
2023-01-26T04:45:11.465Z,65.56
2023-01-26T04:47:39.232Z,65.43
2023-01-26T04:50:11.347Z,65.20
2023-01-26T04:52:39.336Z,65.43
2023-01-26T04:55:07.238Z,65.56
2023-01-26T04:57:34.924Z,65.14
2023-01-26T05:00:02.577Z,65.36
2023-01-26T05:02:30.228Z,65.19
2023-01-26T05:04:57.883Z,65.28
2023-01-26T05:07:26.848Z,65.60
2023-01-26T05:09:55.706Z,65.68
2023-01-26T05:12:35.566Z,65.39
2023-01-26T05:15:03.330Z,65.14
2023-01-26T05:17:30.939Z,65.36
2023-01-26T05:19:58.588Z,65.30
2023-01-26T05:22:27.818Z,65.47
2023-01-26T05:24:55.436Z,65.36
2023-01-26T05:27:23.175Z,65.31
2023-01-26T05:29:51.880Z,65.01
2023-01-26T05:32:19.837Z,65.25
2023-01-26T05:34:47.876Z,65.33
2023-01-26T05:37:15.545Z,65.20
2023-01-26T05:39:44.535Z,65.17
2023-01-26T05:42:13.154Z,65.38
2023-01-26T05:44:41.040Z,65.04
2023-01-26T05:47:08.708Z,65.36
2023-01-26T05:49:38.707Z,65.17
2023-01-26T05:52:10.528Z,65.41
2023-01-26T05:54:38.245Z,65.38
2023-01-26T05:57:07.549Z,65.35
2023-01-26T05:59:35.467Z,65.34
2023-01-26T06:02:03.203Z,65.19
2023-01-26T06:04:31.526Z,65.31
2023-01-26T06:07:00.795Z,65.34
2023-01-26T06:09:28.445Z,65.57
2023-01-26T06:11:56.045Z,65.32
2023-01-26T06:14:25.082Z,65.46
2023-01-26T06:16:54.440Z,65.53
2023-01-26T06:19:22.105Z,65.08
2023-01-26T06:21:49.753Z,65.22
2023-01-26T06:24:17.427Z,65.38
2023-01-26T06:26:45.080Z,65.40
2023-01-26T06:29:12.929Z,65.51
2023-01-26T06:31:42.100Z,65.56
2023-01-26T06:34:11.063Z,65.48
2023-01-26T06:36:38.697Z,65.60
2023-01-26T06:39:06.366Z,65.35
2023-01-26T06:41:34.394Z,65.64
2023-01-26T06:44:02.119Z,65.24
2023-01-26T06:46:29.752Z,65.32
2023-01-26T06:48:58.723Z,65.50
2023-01-26T06:51:48.776Z,65.60
2023-01-26T06:54:16.662Z,65.16
2023-01-26T06:56:44.290Z,65.51
2023-01-26T06:59:12.117Z,65.33
2023-01-26T07:01:42.943Z,65.64
2023-01-26T07:04:11.933Z,65.39
2023-01-26T07:06:39.586Z,65.67
2023-01-26T07:09:07.884Z,65.48
2023-01-26T07:11:35.536Z,65.33
2023-01-26T07:14:03.182Z,65.63
2023-01-26T07:16:33.546Z,65.59
2023-01-26T07:19:01.439Z,65.44
2023-01-26T07:21:30.458Z,65.43
2023-01-26T07:23:58.374Z,65.42
2023-01-26T07:26:26.045Z,65.39
2023-01-26T07:28:53.695Z,65.31
2023-01-26T07:31:21.438Z,65.28
2023-01-26T07:33:49.107Z,65.49
2023-01-26T07:36:16.766Z,65.66
2023-01-26T07:38:45.731Z,65.39
2023-01-26T07:41:14.417Z,65.26
2023-01-26T07:43:42.617Z,65.32
2023-01-26T07:46:11.896Z,65.53
2023-01-26T07:48:41.721Z,65.50
2023-01-26T07:51:11.219Z,65.39
2023-01-26T07:53:40.241Z,65.34
2023-01-26T07:56:11.984Z,65.52
2023-01-26T07:58:40.040Z,65.43
2023-01-26T08:01:09.756Z,64.91
2023-01-26T08:03:37.739Z,65.55
2023-01-26T08:06:06.063Z,65.45
2023-01-26T08:08:34.510Z,65.54
2023-01-26T08:11:03.789Z,65.51
2023-01-26T08:13:35.871Z,65.57
2023-01-26T08:16:05.469Z,65.60
2023-01-26T08:18:33.396Z,65.53
2023-01-26T08:21:01.401Z,65.49
2023-01-26T08:23:29.251Z,65.42
2023-01-26T08:26:01.368Z,65.46
2023-01-26T08:28:29.357Z,65.35
2023-01-26T08:30:58.369Z,65.76
2023-01-26T08:33:26.114Z,65.91
2023-01-26T08:35:53.760Z,65.80
2023-01-26T08:38:21.377Z,65.43
2023-01-26T08:40:53.673Z,65.60
2023-01-26T08:43:21.319Z,65.78
2023-01-26T08:45:49.100Z,65.62
2023-01-26T08:48:18.352Z,65.69
2023-01-26T08:50:46.067Z,65.74
2023-01-26T08:53:13.837Z,65.60
2023-01-26T08:55:41.497Z,65.63
2023-01-26T08:58:09.096Z,65.53
2023-01-26T09:00:37.152Z,65.57
2023-01-26T09:03:06.553Z,66.04
2023-01-26T09:05:37.912Z,65.53
2023-01-26T09:08:06.802Z,65.46
2023-01-26T09:10:34.746Z,65.78
2023-01-26T09:13:02.544Z,65.60
2023-01-26T09:15:30.217Z,65.71
2023-01-26T09:18:00.674Z,65.45
2023-01-26T09:20:28.601Z,65.53
2023-01-26T09:22:57.604Z,66.01
2023-01-26T09:25:25.223Z,65.75
2023-01-26T09:27:52.837Z,65.67
2023-01-26T09:30:20.617Z,65.64
2023-01-26T09:32:48.282Z,65.81
2023-01-26T09:35:16.344Z,65.71
2023-01-26T09:37:44.841Z,65.76
2023-01-26T09:40:19.690Z,65.86
2023-01-26T09:43:01.712Z,65.92
2023-01-26T09:45:34.604Z,65.82
2023-01-26T09:48:17.002Z,65.82
2023-01-26T09:50:49.538Z,65.74
2023-01-26T09:53:22.349Z,65.65
2023-01-26T09:55:53.066Z,65.77
2023-01-26T09:58:32.513Z,66.07
2023-01-26T10:01:03.345Z,65.82
2023-01-26T10:03:40.494Z,65.81
2023-01-26T10:06:17.302Z,65.76
2023-01-26T10:08:45.902Z,65.81
2023-01-26T10:11:20.770Z,65.64
2023-01-26T10:13:55.204Z,65.82
2023-01-26T10:16:24.967Z,66.04
2023-01-26T10:18:57.381Z,65.88
2023-01-26T10:21:29.553Z,65.70
2023-01-26T10:24:00.384Z,65.90
2023-01-26T10:26:32.574Z,65.75
2023-01-26T10:29:00.466Z,65.80
2023-01-26T10:31:30.972Z,65.73
2023-01-26T10:34:01.818Z,66.03
2023-01-26T10:36:31.822Z,65.80
2023-01-26T10:39:06.437Z,65.75
2023-01-26T10:41:36.141Z,65.78
2023-01-26T10:44:19.972Z,65.97
2023-01-26T10:46:47.694Z,65.83
2023-01-26T10:49:17.619Z,65.90
2023-01-26T10:51:47.603Z,65.88
2023-01-26T10:54:20.046Z,66.08
2023-01-26T10:56:51.403Z,65.77
2023-01-26T10:59:27.010Z,65.83
2023-01-26T11:01:57.440Z,65.95
2023-01-26T11:04:26.344Z,65.97
2023-01-26T11:06:54.967Z,65.91
2023-01-26T11:09:28.788Z,66.13
2023-01-26T11:12:00.623Z,65.78
2023-01-26T11:14:29.143Z,65.61
2023-01-26T11:17:02.296Z,65.82
2023-01-26T11:19:50.432Z,65.88
2023-01-26T11:22:25.340Z,66.14
2023-01-26T11:25:01.701Z,66.02
2023-01-26T11:27:41.221Z,65.71
2023-01-26T11:30:52.885Z,65.90
2023-01-26T11:33:29.950Z,65.92
2023-01-26T11:36:04.990Z,65.89
2023-01-26T11:38:41.363Z,66.05
2023-01-26T11:41:21.468Z,65.84
2023-01-26T11:44:21.014Z,65.90
2023-01-26T11:47:11.729Z,65.78
2023-01-26T11:49:58.304Z,66.17
2023-01-26T11:52:36.282Z,65.94
2023-01-26T11:55:19.164Z,65.75
2023-01-26T11:57:59.859Z,65.98
2023-01-26T12:00:38.736Z,65.96
2023-01-26T12:03:13.105Z,65.86
2023-01-26T12:05:45.170Z,65.98
2023-01-26T12:08:20.358Z,65.93
2023-01-26T12:10:52.899Z,66.10
2023-01-26T12:13:29.150Z,65.75
2023-01-26T12:16:06.553Z,66.19
2023-01-26T12:18:53.013Z,66.02
2023-01-26T12:21:28.092Z,66.04
2023-01-26T12:24:02.160Z,66.01
2023-01-26T12:26:34.844Z,66.06
2023-01-26T12:29:09.708Z,66.03
2023-01-26T12:31:44.770Z,65.94
2023-01-26T12:34:13.641Z,66.02
2023-01-26T12:36:48.574Z,66.08
2023-01-26T12:39:25.023Z,65.74
2023-01-26T12:42:03.273Z,65.74
2023-01-26T12:44:37.670Z,65.75
2023-01-26T12:47:15.283Z,65.79
2023-01-26T12:49:50.861Z,65.78
2023-01-26T12:52:24.053Z,65.80
2023-01-26T12:54:58.352Z,65.87
2023-01-26T12:57:32.287Z,65.94
2023-01-26T13:00:08.789Z,66.11
2023-01-26T13:02:38.303Z,65.99
2023-01-26T13:05:07.860Z,65.77
2023-01-26T13:07:37.022Z,65.86
2023-01-26T13:10:45.496Z,65.91
2023-01-26T13:13:31.988Z,65.95
2023-01-26T13:16:33.574Z,65.98
2023-01-26T13:19:04.418Z,65.85
2023-01-26T13:21:45.037Z,65.84
2023-01-26T13:24:43.368Z,66.02
2023-01-26T13:27:29.871Z,65.86
2023-01-26T13:29:57.793Z,65.91
2023-01-26T13:33:02.978Z,65.80
2023-01-26T13:35:32.955Z,65.64
2023-01-26T13:38:08.121Z,66.00
2023-01-26T13:40:37.836Z,65.91
2023-01-26T13:43:25.826Z,66.10
2023-01-26T13:46:04.911Z,65.84
2023-01-26T13:48:45.016Z,65.95
2023-01-26T13:51:20.254Z,66.01
2023-01-26T13:54:03.388Z,65.95
2023-01-26T13:56:33.624Z,66.12
2023-01-26T13:59:07.724Z,66.00
2023-01-26T14:01:42.200Z,65.89
2023-01-26T14:04:15.152Z,66.13
2023-01-26T14:06:48.744Z,65.75
2023-01-26T14:09:17.044Z,66.06
2023-01-26T14:11:45.127Z,65.97
2023-01-26T14:14:25.816Z,66.24
2023-01-26T14:16:53.526Z,66.06
2023-01-26T14:19:23.307Z,65.94
2023-01-26T14:21:54.462Z,65.97
2023-01-26T14:24:27.375Z,66.04
2023-01-26T14:26:55.345Z,65.90
2023-01-26T14:29:24.919Z,66.09
2023-01-26T14:31:53.857Z,66.07
2023-01-26T14:34:23.647Z,66.10
2023-01-26T14:37:09.059Z,66.09
2023-01-26T14:39:36.811Z,66.18
2023-01-26T14:42:05.670Z,66.17
2023-01-26T14:44:33.436Z,66.41
2023-01-26T14:47:05.612Z,66.32
2023-01-26T14:49:43.855Z,65.94
2023-01-26T14:52:26.578Z,66.12
2023-01-26T14:54:56.292Z,66.11
2023-01-26T14:57:26.031Z,65.94
2023-01-26T14:59:56.263Z,66.32
2023-01-26T15:02:26.194Z,66.33
2023-01-26T15:04:58.663Z,66.17
2023-01-26T15:07:35.855Z,66.28
2023-01-26T15:10:05.806Z,66.25
2023-01-26T15:12:36.943Z,66.16
2023-01-26T15:15:13.928Z,66.07
2023-01-26T15:17:43.337Z,66.29
2023-01-26T15:20:41.500Z,65.94
2023-01-26T15:23:23.003Z,66.06
2023-01-26T15:25:51.668Z,65.86
2023-01-26T15:28:23.312Z,66.18
2023-01-26T15:30:53.835Z,66.03
2023-01-26T15:33:52.045Z,66.24
2023-01-26T15:36:32.532Z,66.05
2023-01-26T15:39:04.442Z,66.30
2023-01-26T15:41:32.414Z,66.23
2023-01-26T15:44:00.362Z,66.16
2023-01-26T15:46:28.729Z,66.20
2023-01-26T15:48:56.797Z,65.96
2023-01-26T15:51:24.453Z,66.25
2023-01-26T15:53:52.085Z,66.26
2023-01-26T15:56:21.052Z,66.40
2023-01-26T15:58:48.681Z,66.30
2023-01-26T16:01:21.453Z,66.00
2023-01-26T16:03:49.472Z,66.02
2023-01-26T16:06:23.048Z,66.39
2023-01-26T16:08:50.736Z,66.19
2023-01-26T16:11:19.464Z,66.51
2023-01-26T16:14:02.292Z,66.07
2023-01-26T16:16:31.109Z,66.24
2023-01-26T16:18:58.829Z,65.99
2023-01-26T16:21:30.259Z,66.11
2023-01-26T16:23:58.316Z,65.86
2023-01-26T16:26:28.172Z,66.05
2023-01-26T16:28:57.257Z,66.36
2023-01-26T16:31:27.879Z,66.16
2023-01-26T16:33:55.638Z,66.37
2023-01-26T16:36:23.608Z,66.42
2023-01-26T16:38:51.761Z,66.07
2023-01-26T16:41:25.231Z,66.18
2023-01-26T16:43:55.300Z,65.98
2023-01-26T16:46:24.734Z,66.33
2023-01-26T16:48:52.440Z,66.34
2023-01-26T16:51:23.695Z,66.13
2023-01-26T16:53:51.723Z,66.47
2023-01-26T16:56:20.108Z,66.33
2023-01-26T16:58:47.989Z,66.24
2023-01-26T17:01:19.469Z,65.97
2023-01-26T17:03:49.117Z,66.35
2023-01-26T17:06:18.114Z,66.24
2023-01-26T17:08:46.211Z,66.02
2023-01-26T17:11:17.779Z,66.07
2023-01-26T17:13:46.560Z,66.38
2023-01-26T17:16:16.220Z,66.23
2023-01-26T17:18:45.065Z,66.24
2023-01-26T17:21:14.417Z,66.27
2023-01-26T17:23:44.432Z,66.38
2023-01-26T17:26:15.217Z,66.42
2023-01-26T17:28:43.026Z,66.14
2023-01-26T17:31:12.224Z,66.29
2023-01-26T17:33:40.670Z,66.23
2023-01-26T17:36:08.988Z,65.98
2023-01-26T17:38:38.051Z,66.15
2023-01-26T17:41:06.206Z,66.31
2023-01-26T17:43:34.296Z,66.19
2023-01-26T17:46:07.008Z,66.18
2023-01-26T17:48:37.408Z,66.17
2023-01-26T17:51:08.940Z,66.52
2023-01-26T17:53:42.555Z,66.53
2023-01-26T17:56:11.752Z,66.39
2023-01-26T17:58:39.917Z,66.04
2023-01-26T18:01:09.471Z,66.17
2023-01-26T18:03:41.804Z,66.16
2023-01-26T18:06:10.466Z,66.10
2023-01-26T18:08:38.722Z,66.31
2023-01-26T18:11:10.524Z,66.44
2023-01-26T18:13:38.348Z,65.82
2023-01-26T18:16:06.844Z,66.51
2023-01-26T18:18:35.184Z,66.11
2023-01-26T18:21:11.383Z,66.17
2023-01-26T18:23:39.115Z,66.15
2023-01-26T18:26:08.621Z,66.11
2023-01-26T18:28:36.246Z,66.34
2023-01-26T18:31:10.151Z,65.98
2023-01-26T18:33:37.911Z,66.10
2023-01-26T18:36:06.943Z,66.12
2023-01-26T18:38:34.644Z,58.61
2023-01-26T18:41:02.471Z,53.73
2023-01-26T18:43:32.615Z,51.04
2023-01-26T18:46:02.885Z,50.59
2023-01-26T18:48:31.140Z,49.81
2023-01-26T18:50:59.453Z,49.20
2023-01-26T18:53:27.187Z,48.22
2023-01-26T18:56:02.676Z,47.71
2023-01-26T18:58:32.318Z,48.42
2023-01-26T19:01:00.970Z,50.69
2023-01-26T19:03:28.703Z,52.20
2023-01-26T19:05:56.558Z,53.30
2023-01-26T19:08:24.193Z,53.54
2023-01-26T19:10:51.804Z,54.39
2023-01-26T19:13:19.461Z,54.53
2023-01-26T19:15:49.247Z,55.53
2023-01-26T19:18:17.256Z,55.56
2023-01-26T19:20:45.961Z,56.04
2023-01-26T19:23:13.623Z,56.43
2023-01-26T19:25:41.266Z,56.82
2023-01-26T19:28:10.137Z,57.49
2023-01-26T19:30:37.748Z,57.32
2023-01-26T19:33:25.081Z,57.95
2023-01-26T19:35:52.965Z,58.05
2023-01-26T19:38:20.909Z,58.53
2023-01-26T19:40:50.500Z,58.61
2023-01-26T19:43:20.024Z,58.86
2023-01-26T19:45:53.031Z,59.29
2023-01-26T19:49:04.867Z,59.61
2023-01-26T19:51:41.322Z,59.61
2023-01-26T19:54:13.332Z,59.57
2023-01-26T19:56:42.486Z,59.76
2023-01-26T19:59:13.485Z,60.02
2023-01-26T20:01:43.856Z,60.12
2023-01-26T20:04:17.429Z,60.23
2023-01-26T20:06:50.319Z,60.28
2023-01-26T20:09:17.977Z,60.32
2023-01-26T20:11:45.646Z,60.63
2023-01-26T20:14:13.277Z,60.43
2023-01-26T20:16:41.051Z,60.59
2023-01-26T20:19:08.739Z,61.03
2023-01-26T20:21:38.706Z,61.02
2023-01-26T20:24:09.535Z,61.08
2023-01-26T20:26:37.455Z,61.30
2023-01-26T20:29:06.197Z,61.16
2023-01-26T20:31:34.129Z,61.39
2023-01-26T20:34:02.223Z,61.22
2023-01-26T20:36:30.382Z,61.46
2023-01-26T20:38:58.353Z,61.51
2023-01-26T20:41:30.402Z,61.51
2023-01-26T20:44:01.706Z,61.70
2023-01-26T20:46:32.658Z,61.85
2023-01-26T20:49:00.782Z,62.01
2023-01-26T20:51:31.285Z,61.90
2023-01-26T20:53:59.098Z,62.23
2023-01-26T20:56:28.121Z,61.84
2023-01-26T20:58:56.821Z,62.06
2023-01-26T21:01:25.578Z,61.99
2023-01-26T21:03:53.690Z,62.06
2023-01-26T21:06:24.151Z,62.23
2023-01-26T21:08:55.104Z,61.93
2023-01-26T21:11:24.522Z,61.91
2023-01-26T21:13:53.876Z,62.48
2023-01-26T21:16:23.061Z,62.51
2023-01-26T21:18:51.625Z,62.37
2023-01-26T21:21:21.527Z,62.51
2023-01-26T21:23:49.646Z,62.40
2023-01-26T21:26:21.793Z,62.71
2023-01-26T21:28:51.573Z,62.89
2023-01-26T21:31:21.857Z,62.63
2023-01-26T21:33:50.366Z,62.73
2023-01-26T21:36:19.869Z,62.97
2023-01-26T21:38:50.830Z,62.52
2023-01-26T21:41:37.522Z,62.77
2023-01-26T21:44:07.500Z,62.77
2023-01-26T21:46:36.826Z,62.58
2023-01-26T21:49:05.365Z,62.91
2023-01-26T21:51:50.604Z,62.92
2023-01-26T21:54:18.609Z,63.09
2023-01-26T21:56:46.527Z,63.05
2023-01-26T21:59:14.838Z,62.97
2023-01-26T22:01:45.735Z,63.09
2023-01-26T22:04:16.245Z,63.15
2023-01-26T22:06:44.297Z,62.90
2023-01-26T22:09:14.407Z,63.35
2023-01-26T22:11:42.322Z,63.06
2023-01-26T22:14:15.072Z,63.31
2023-01-26T22:16:44.595Z,63.39
2023-01-26T22:19:12.942Z,63.22
2023-01-26T22:21:41.212Z,63.43
2023-01-26T22:24:11.764Z,63.16
2023-01-26T22:26:40.134Z,63.22
2023-01-26T22:29:08.764Z,63.22
2023-01-26T22:31:36.476Z,63.48
2023-01-26T22:34:05.657Z,62.57
2023-01-26T22:36:33.423Z,57.13
2023-01-26T22:39:01.733Z,60.04
2023-01-26T22:41:30.398Z,60.93
2023-01-26T22:43:59.620Z,60.49
2023-01-26T22:46:29.267Z,60.21
2023-01-26T22:48:58.152Z,60.40
2023-01-26T22:51:29.391Z,60.82
2023-01-26T22:53:58.449Z,60.21
2023-01-26T22:56:27.046Z,58.59
2023-01-26T22:58:59.507Z,59.85
2023-01-26T23:01:28.978Z,60.23
2023-01-26T23:03:57.723Z,60.35
2023-01-26T23:06:27.549Z,60.23
2023-01-26T23:08:55.670Z,60.27
2023-01-26T23:11:25.238Z,60.28
2023-01-26T23:13:54.396Z,60.35
2023-01-26T23:16:23.583Z,60.96
2023-01-26T23:18:51.996Z,60.95
2023-01-26T23:21:20.201Z,60.91
2023-01-26T23:23:49.304Z,61.21
2023-01-26T23:26:17.484Z,61.26
2023-01-26T23:28:45.883Z,61.33
2023-01-26T23:31:15.345Z,61.37
2023-01-26T23:33:43.684Z,61.57
2023-01-26T23:36:13.226Z,61.65
2023-01-26T23:38:41.142Z,61.64
2023-01-26T23:41:10.329Z,61.90
2023-01-26T23:43:37.948Z,61.57
2023-01-26T23:46:07.066Z,61.92
2023-01-26T23:48:35.065Z,62.07
2023-01-26T23:51:04.489Z,60.62
2023-01-26T23:53:32.743Z,59.53
2023-01-26T23:56:01.964Z,58.82
2023-01-26T23:58:31.083Z,58.10
